Time,TemperatureF,DewpointF,PressureIn,WindDirection,WindDirectionDegrees,WindSpeedMPH,WindSpeedGustMPH,Humidity,HourlyPrecipIn,Conditions,Clouds,dailyrainin,SolarRadiationWatts/m^2,SoftwareType,DateUTC
2013-03-23 00:03:00,35.0,22.0,-100.00,West,264,6.0,13.0,59,0.00,,,0.00,0.000000,,2013-03-23 04:03:00,
2013-03-23 00:33:00,34.0,20.0,-100.00,WSW,257,10.0,18.0,57,0.00,,,0.00,0.000000,,2013-03-23 04:33:00,
2013-03-23 00:43:00,34.0,20.0,-100.00,WSW,257,10.0,18.0,57,0.00,,,0.00,0.000000,,2013-03-23 04:43:00,
2013-03-23 00:53:00,34.0,20.0,-100.00,WSW,257,10.0,18.0,57,0.00,,,0.00,0.000000,,2013-03-23 04:53:00,
2013-03-23 01:02:00,34.0,20.0,-100.00,WSW,257,10.0,18.0,57,0.00,,,0.00,0.000000,,2013-03-23 05:02:00,
2013-03-23 01:33:00,34.0,20.0,-100.00,SW,230,5.0,19.0,56,0.00,,,0.00,0.000000,,2013-03-23 05:33:00,
2013-03-23 01:42:00,34.0,20.0,-100.00,SW,230,5.0,19.0,56,0.00,,,0.00,0.000000,,2013-03-23 05:42:00,
2013-03-23 01:53:00,34.0,20.0,-100.00,SW,230,5.0,19.0,56,0.00,,,0.00,0.000000,,2013-03-23 05:53:00,
2013-03-23 02:02:00,34.0,20.0,-100.00,SW,230,5.0,19.0,56,0.00,,,0.00,0.000000,,2013-03-23 06:02:00,
2013-03-23 02:32:00,33.0,20.0,-100.00,SW,229,6.0,10.0,59,0.00,,,0.00,0.000000,,2013-03-23 06:32:00,
2013-03-23 02:42:00,33.0,20.0,-100.00,SW,229,6.0,10.0,59,0.00,,,0.00,0.000000,,2013-03-23 06:42:00,
2013-03-23 02:52:00,33.0,20.0,-100.00,SW,229,6.0,10.0,59,0.00,,,0.00,0.000000,,2013-03-23 06:52:00,
2013-03-23 03:03:00,33.0,20.0,-100.00,SW,229,6.0,10.0,59,0.00,,,0.00,0.000000,,2013-03-23 07:03:00,
2013-03-23 03:33:00,33.0,19.0,-100.00,WSW,246,5.0,12.0,57,0.00,,,0.00,0.000000,,2013-03-23 07:33:00,
2013-03-23 03:42:00,33.0,19.0,-100.00,WSW,246,5.0,12.0,57,0.00,,,0.00,0.000000,,2013-03-23 07:42:00,
2013-03-23 03:52:00,33.0,19.0,-100.00,WSW,246,5.0,12.0,57,0.00,,,0.00,0.000000,,2013-03-23 07:52:00,
2013-03-23 04:03:00,33.0,19.0,-100.00,WSW,246,5.0,12.0,57,0.00,,,0.00,0.000000,,2013-03-23 08:03:00,
2013-03-23 04:32:00,32.0,19.0,-100.00,SSW,211,5.0,11.0,59,0.00,,,0.00,0.000000,,2013-03-23 08:32:00,
2013-03-23 04:42:00,32.0,19.0,-100.00,SSW,211,5.0,11.0,59,0.00,,,0.00,0.000000,,2013-03-23 08:42:00,
2013-03-23 04:53:00,32.0,19.0,-100.00,SSW,211,5.0,11.0,59,0.00,,,0.00,0.000000,,2013-03-23 08:53:00,
2013-03-23 05:02:00,32.0,19.0,-100.00,SSW,211,5.0,11.0,59,0.00,,,0.00,0.000000,,2013-03-23 09:02:00,
2013-03-23 05:33:00,33.0,20.0,-100.00,SW,224,5.0,10.0,58,0.00,,,0.00,0.000000,,2013-03-23 09:33:00,
2013-03-23 05:43:00,33.0,20.0,-100.00,SW,224,5.0,10.0,58,0.00,,,0.00,0.000000,,2013-03-23 09:43:00,
2013-03-23 05:53:00,33.0,20.0,-100.00,SW,224,5.0,10.0,58,0.00,,,0.00,0.000000,,2013-03-23 09:53:00,
2013-03-23 06:03:00,33.0,20.0,-100.00,SW,224,5.0,10.0,58,0.00,,,0.00,0.000000,,2013-03-23 10:03:00,
2013-03-23 06:34:00,33.0,20.0,-100.00,WSW,246,5.0,13.0,58,0.00,,,0.00,0.000000,,2013-03-23 10:34:00,
2013-03-23 06:43:00,33.0,20.0,-100.00,WSW,246,5.0,13.0,58,0.00,,,0.00,0.000000,,2013-03-23 10:43:00,
2013-03-23 06:53:00,33.0,20.0,-100.00,WSW,246,5.0,13.0,58,0.00,,,0.00,0.000000,,2013-03-23 10:53:00,
2013-03-23 07:03:00,33.0,20.0,-100.00,WSW,246,5.0,13.0,58,0.00,,,0.00,0.000000,,2013-03-23 11:03:00,
2013-03-23 07:32:00,32.0,20.0,-100.00,WSW,249,7.0,13.0,61,0.00,,,0.00,3.000000,,2013-03-23 11:32:00,
2013-03-23 07:42:00,32.0,20.0,-100.00,WSW,249,7.0,13.0,61,0.00,,,0.00,3.000000,,2013-03-23 11:42:00,
2013-03-23 07:52:00,32.0,20.0,-100.00,WSW,249,7.0,13.0,61,0.00,,,0.00,3.000000,,2013-03-23 11:52:00,
2013-03-23 08:02:00,32.0,20.0,-100.00,WSW,249,7.0,13.0,61,0.00,,,0.00,3.000000,,2013-03-23 12:02:00,
2013-03-23 08:33:00,35.0,20.0,-100.00,West,259,8.0,15.0,54,0.00,,,0.00,97.000000,,2013-03-23 12:33:00,
2013-03-23 08:43:00,35.0,20.0,-100.00,West,259,8.0,15.0,54,0.00,,,0.00,97.000000,,2013-03-23 12:43:00,
2013-03-23 08:53:00,35.0,20.0,-100.00,West,259,8.0,15.0,54,0.00,,,0.00,97.000000,,2013-03-23 12:53:00,
2013-03-23 09:03:00,35.0,20.0,-100.00,West,259,8.0,15.0,54,0.00,,,0.00,97.000000,,2013-03-23 13:03:00,
2013-03-23 09:33:00,37.0,20.0,-100.00,West,262,12.0,22.0,50,0.00,,,0.00,320.000000,,2013-03-23 13:33:00,
2013-03-23 09:43:00,37.0,20.0,-100.00,West,262,12.0,22.0,50,0.00,,,0.00,320.000000,,2013-03-23 13:43:00,
2013-03-23 09:53:00,37.0,20.0,-100.00,West,262,12.0,22.0,50,0.00,,,0.00,320.000000,,2013-03-23 13:53:00,
2013-03-23 10:03:00,37.0,20.0,-100.00,West,262,12.0,22.0,50,0.00,,,0.00,320.000000,,2013-03-23 14:03:00,
2013-03-23 10:33:00,37.0,20.0,-100.00,WNW,283,10.0,26.0,49,0.00,,,0.00,340.000000,,2013-03-23 14:33:00,
2013-03-23 10:43:00,37.0,20.0,-100.00,WNW,283,10.0,26.0,49,0.00,,,0.00,340.000000,,2013-03-23 14:43:00,
2013-03-23 10:53:00,37.0,20.0,-100.00,WNW,283,10.0,26.0,49,0.00,,,0.00,340.000000,,2013-03-23 14:53:00,
2013-03-23 11:04:00,37.0,20.0,-100.00,WNW,283,10.0,26.0,49,0.00,,,0.00,340.000000,,2013-03-23 15:04:00,
2013-03-23 11:34:00,39.0,20.0,-100.00,West,271,9.0,18.0,46,0.00,,,0.00,240.000000,,2013-03-23 15:34:00,
2013-03-23 11:44:00,39.0,20.0,-100.00,West,271,9.0,18.0,46,0.00,,,0.00,240.000000,,2013-03-23 15:44:00,
2013-03-23 11:53:00,39.0,20.0,-100.00,West,271,9.0,18.0,46,0.00,,,0.00,240.000000,,2013-03-23 15:53:00,
2013-03-23 12:03:00,39.0,20.0,-100.00,West,271,9.0,18.0,46,0.00,,,0.00,240.000000,,2013-03-23 16:03:00,
2013-03-23 12:33:00,43.0,18.0,-100.00,WNW,286,12.0,22.0,36,0.00,,,0.00,556.000000,,2013-03-23 16:33:00,
2013-03-23 12:43:00,43.0,18.0,-100.00,WNW,286,12.0,22.0,36,0.00,,,0.00,556.000000,,2013-03-23 16:43:00,
2013-03-23 12:54:00,43.0,18.0,-100.00,WNW,286,12.0,22.0,36,0.00,,,0.00,556.000000,,2013-03-23 16:54:00,
2013-03-23 13:03:00,43.0,18.0,-100.00,WNW,286,12.0,22.0,36,0.00,,,0.00,556.000000,,2013-03-23 17:03:00,
2013-03-23 13:33:00,43.0,19.0,-100.00,West,271,12.0,27.0,38,0.00,,,0.00,675.000000,,2013-03-23 17:33:00,
2013-03-23 13:43:00,43.0,19.0,-100.00,West,271,12.0,27.0,38,0.00,,,0.00,675.000000,,2013-03-23 17:43:00,
2013-03-23 13:53:00,43.0,19.0,-100.00,West,271,12.0,27.0,38,0.00,,,0.00,675.000000,,2013-03-23 17:53:00,
2013-03-23 14:03:00,43.0,19.0,-100.00,West,271,12.0,27.0,38,0.00,,,0.00,675.000000,,2013-03-23 18:03:00,
2013-03-23 14:32:00,43.0,18.0,-100.00,West,277,11.0,25.0,36,0.00,,,0.00,488.000000,,2013-03-23 18:32:00,
2013-03-23 14:43:00,43.0,18.0,-100.00,West,277,11.0,25.0,36,0.00,,,0.00,488.000000,,2013-03-23 18:43:00,
2013-03-23 14:53:00,43.0,18.0,-100.00,West,277,11.0,25.0,36,0.00,,,0.00,488.000000,,2013-03-23 18:53:00,
2013-03-23 15:03:00,43.0,18.0,-100.00,West,277,11.0,25.0,36,0.00,,,0.00,488.000000,,2013-03-23 19:03:00,
2013-03-23 15:33:00,43.0,17.0,-100.00,West,280,11.0,23.0,34,0.00,,,0.00,554.000000,,2013-03-23 19:33:00,
2013-03-23 15:43:00,43.0,17.0,-100.00,West,280,11.0,23.0,34,0.00,,,0.00,554.000000,,2013-03-23 19:43:00,
2013-03-23 15:53:00,43.0,17.0,-100.00,West,280,11.0,23.0,34,0.00,,,0.00,554.000000,,2013-03-23 19:53:00,
2013-03-23 16:03:00,43.0,17.0,-100.00,West,280,11.0,23.0,34,0.00,,,0.00,554.000000,,2013-03-23 20:03:00,
2013-03-23 16:33:00,43.0,14.0,-100.00,WNW,287,10.0,22.0,31,0.00,,,0.00,613.000000,,2013-03-23 20:33:00,
2013-03-23 16:43:00,43.0,14.0,-100.00,WNW,287,10.0,22.0,31,0.00,,,0.00,613.000000,,2013-03-23 20:43:00,
2013-03-23 16:53:00,43.0,14.0,-100.00,WNW,287,10.0,22.0,31,0.00,,,0.00,613.000000,,2013-03-23 20:53:00,
2013-03-23 17:03:00,43.0,14.0,-100.00,WNW,287,10.0,22.0,31,0.00,,,0.00,613.000000,,2013-03-23 21:03:00,
2013-03-23 17:33:00,42.0,15.0,-100.00,WNW,293,9.0,21.0,33,0.00,,,0.00,263.000000,,2013-03-23 21:33:00,
2013-03-23 17:43:00,42.0,15.0,-100.00,WNW,293,9.0,21.0,33,0.00,,,0.00,263.000000,,2013-03-23 21:43:00,
2013-03-23 17:54:00,42.0,15.0,-100.00,WNW,293,9.0,21.0,33,0.00,,,0.00,263.000000,,2013-03-23 21:54:00,
2013-03-23 18:03:00,42.0,15.0,-100.00,WNW,293,9.0,21.0,33,0.00,,,0.00,263.000000,,2013-03-23 22:03:00,
2013-03-23 18:33:00,43.0,17.0,-100.00,WNW,284,11.0,22.0,34,0.00,,,0.00,200.000000,,2013-03-23 22:33:00,
2013-03-23 18:43:00,43.0,17.0,-100.00,WNW,284,11.0,22.0,34,0.00,,,0.00,200.000000,,2013-03-23 22:43:00,
2013-03-23 18:53:00,43.0,17.0,-100.00,WNW,284,11.0,22.0,34,0.00,,,0.00,200.000000,,2013-03-23 22:53:00,
2013-03-23 19:03:00,43.0,17.0,-100.00,WNW,284,11.0,22.0,34,0.00,,,0.00,200.000000,,2013-03-23 23:03:00,
2013-03-23 19:33:00,40.0,17.0,-100.00,WNW,302,6.0,22.0,39,0.00,,,0.00,72.000000,,2013-03-23 23:33:00,
2013-03-23 19:43:00,40.0,17.0,-100.00,WNW,302,6.0,22.0,39,0.00,,,0.00,72.000000,,2013-03-23 23:43:00,
2013-03-23 19:53:00,40.0,17.0,-100.00,WNW,302,6.0,22.0,39,0.00,,,0.00,72.000000,,2013-03-23 23:53:00,
2013-03-23 20:02:00,40.0,17.0,-100.00,WNW,302,6.0,22.0,39,0.00,,,0.00,72.000000,,2013-03-24 00:02:00,
2013-03-23 20:33:00,38.0,17.0,-100.00,WNW,284,5.0,16.0,42,0.00,,,-99.99,1.000000,,2013-03-24 00:33:00,
2013-03-23 20:42:00,38.0,17.0,-100.00,WNW,284,5.0,16.0,42,0.00,,,-99.99,1.000000,,2013-03-24 00:42:00,
2013-03-23 20:53:00,38.0,17.0,-100.00,WNW,284,5.0,16.0,42,0.00,,,-99.99,1.000000,,2013-03-24 00:53:00,
2013-03-23 21:02:00,38.0,17.0,-100.00,WNW,284,5.0,16.0,42,0.00,,,-99.99,1.000000,,2013-03-24 01:02:00,
2013-03-23 21:33:00,38.0,16.0,-100.00,WNW,295,7.0,16.0,41,0.00,,,0.00,0.000000,,2013-03-24 01:33:00,
2013-03-23 21:43:00,38.0,16.0,-100.00,WNW,295,7.0,16.0,41,0.00,,,0.00,0.000000,,2013-03-24 01:43:00,
2013-03-23 21:53:00,38.0,16.0,-100.00,WNW,295,7.0,16.0,41,0.00,,,0.00,0.000000,,2013-03-24 01:53:00,
2013-03-23 22:03:00,38.0,16.0,-100.00,WNW,295,7.0,16.0,41,0.00,,,0.00,0.000000,,2013-03-24 02:03:00,
2013-03-23 22:32:00,37.0,17.0,-100.00,WNW,292,7.0,17.0,43,0.00,,,0.00,0.000000,,2013-03-24 02:32:00,
2013-03-23 22:43:00,37.0,17.0,-100.00,WNW,292,7.0,17.0,43,0.00,,,0.00,0.000000,,2013-03-24 02:43:00,
2013-03-23 22:52:00,37.0,17.0,-100.00,WNW,292,7.0,17.0,43,0.00,,,0.00,0.000000,,2013-03-24 02:52:00,
2013-03-23 23:03:00,37.0,17.0,-100.00,WNW,292,7.0,17.0,43,0.00,,,0.00,0.000000,,2013-03-24 03:03:00,
2013-03-23 23:33:00,35.0,13.0,-100.00,NW,321,4.0,17.0,40,0.00,,,0.00,0.000000,,2013-03-24 03:33:00,
2013-03-23 23:43:00,35.0,13.0,-100.00,NW,321,4.0,17.0,40,0.00,,,0.00,0.000000,,2013-03-24 03:43:00,
2013-03-23 23:53:00,35.0,13.0,-100.00,NW,321,4.0,17.0,40,0.00,,,0.00,0.000000,,2013-03-24 03:53:00,